Terminal Aerodrome Forecast
Issued by NWS Shreveport, LA

Home | Current Version | Previous Version | Text Only | Print | Product List | Glossary On
Versions: 1 2 3 4 5 6 7 8 9 10 11 12
678
FTUS44 KSHV 070543
TAFMLU
TAF
KMLU 070543Z 0706/0806 00000KT P6SM SKC
     FM071500 23009KT P6SM SKC
     FM080100 23004KT P6SM SKC=

USA.gov is the U.S. government's official web portal to all federal, state and local government web resources and services.